createdAt,value
2022-08-04T03:17:32.271Z,3.60
2022-08-04T03:21:02.367Z,3.30
2022-08-04T03:24:43.160Z,3.00
2022-08-04T03:28:20.924Z,3.57
2022-08-04T03:31:48.537Z,3.80
2022-08-04T03:35:22.560Z,4.13
2022-08-04T03:39:00.765Z,3.07
2022-08-04T03:42:35.659Z,3.53
2022-08-04T03:46:09.444Z,3.20
2022-08-04T03:49:51.264Z,3.57
2022-08-04T03:53:21.890Z,3.10
2022-08-04T03:56:52.771Z,3.30
2022-08-04T04:00:08.653Z,5.07
2022-08-04T04:03:48.333Z,4.27
2022-08-04T04:07:35.807Z,3.33
2022-08-04T04:11:19.153Z,4.33
2022-08-04T04:14:52.239Z,4.23
2022-08-04T04:18:17.681Z,4.67
2022-08-04T04:21:36.689Z,3.50
2022-08-04T04:24:57.611Z,3.60
2022-08-04T04:28:46.124Z,3.87
2022-08-04T04:32:08.449Z,5.07
2022-08-04T04:35:27.823Z,3.17
2022-08-04T04:38:53.377Z,4.83
2022-08-04T04:42:21.938Z,3.90
2022-08-04T04:45:39.249Z,4.93
2022-08-04T04:48:55.526Z,4.00
2022-08-04T04:52:13.140Z,4.10
2022-08-04T04:55:27.298Z,3.40
2022-08-04T04:58:39.239Z,5.50
2022-08-04T05:02:17.667Z,4.57
2022-08-04T05:05:34.309Z,4.40
2022-08-04T05:09:03.226Z,3.73
2022-08-04T05:14:24.839Z,3.60
2022-08-04T05:16:11.508Z,6.17
2022-08-04T05:19:33.769Z,3.97
2022-08-04T05:22:51.003Z,4.00
2022-08-04T05:26:03.864Z,4.00
2022-08-04T05:29:20.499Z,7.07
2022-08-04T05:32:41.788Z,3.87
2022-08-04T05:36:20.598Z,6.17
2022-08-04T05:39:39.894Z,5.67
2022-08-04T05:42:50.516Z,9.43
2022-08-04T05:46:02.022Z,5.20
2022-08-04T05:49:12.733Z,5.27
2022-08-04T05:52:36.207Z,9.67
2022-08-04T05:55:59.358Z,5.53
2022-08-04T05:59:12.127Z,10.23
2022-08-04T06:02:24.336Z,10.13
2022-08-04T06:05:34.387Z,6.17
2022-08-04T06:08:45.322Z,5.37
2022-08-04T06:12:00.624Z,4.37
2022-08-04T06:15:17.762Z,6.03
2022-08-04T06:20:00.893Z,3.57
2022-08-04T06:22:05.882Z,5.77
2022-08-04T06:25:20.745Z,9.27
2022-08-04T06:28:35.294Z,11.73
2022-08-04T06:32:30.119Z,13.47
2022-08-04T06:35:20.655Z,9.70
2022-08-04T06:38:36.231Z,14.40
2022-08-04T06:42:14.789Z,7.60
2022-08-04T06:45:21.420Z,12.13
2022-08-04T06:48:33.539Z,14.20
2022-08-04T06:51:49.299Z,7.93
2022-08-04T06:55:07.882Z,6.27
2022-08-04T06:58:21.496Z,7.23
2022-08-04T07:01:31.852Z,7.37
2022-08-04T07:04:44.844Z,4.60
2022-08-04T07:07:56.905Z,3.60
2022-08-04T07:11:10.138Z,3.00
2022-08-04T07:14:21.335Z,3.37
2022-08-04T07:17:39.358Z,2.87
2022-08-04T07:20:52.892Z,4.37
2022-08-04T07:24:02.389Z,3.77
2022-08-04T07:27:12.635Z,3.07
2022-08-04T07:30:28.823Z,3.93
2022-08-04T07:33:41.650Z,4.30
2022-08-04T07:36:55.429Z,4.53
2022-08-04T07:40:06.526Z,4.97
2022-08-04T07:43:19.513Z,5.00
2022-08-04T07:46:32.776Z,8.00
2022-08-04T07:49:54.811Z,8.97
2022-08-04T07:53:54.654Z,7.37
2022-08-04T07:56:38.436Z,6.97
2022-08-04T07:59:50.191Z,4.57
2022-08-04T08:03:02.477Z,6.50
2022-08-04T08:06:17.489Z,4.90
2022-08-04T08:09:44.722Z,6.77
2022-08-04T08:12:57.578Z,4.27
2022-08-04T08:16:07.852Z,3.70
2022-08-04T08:19:21.145Z,3.77
2022-08-04T08:22:32.316Z,7.53
2022-08-04T08:25:41.954Z,8.80
2022-08-04T08:28:54.918Z,6.03
2022-08-04T08:32:12.943Z,4.23
2022-08-04T08:35:29.551Z,5.83
2022-08-04T08:38:48.059Z,5.13
2022-08-04T08:42:21.913Z,4.53
2022-08-04T08:45:52.747Z,4.27
2022-08-04T08:50:02.228Z,5.57
2022-08-04T08:53:16.414Z,4.43
2022-08-04T08:56:34.613Z,2.30
2022-08-04T08:59:54.321Z,4.00
2022-08-04T09:03:35.372Z,4.83
2022-08-04T09:06:55.569Z,4.87
2022-08-04T09:10:13.414Z,2.33
2022-08-04T09:13:27.705Z,4.10
2022-08-04T09:16:43.288Z,2.47
2022-08-04T09:20:00.267Z,3.03
2022-08-04T09:23:24.050Z,6.67
2022-08-04T09:26:45.245Z,2.67
2022-08-04T09:30:12.465Z,4.80
2022-08-04T09:33:44.468Z,2.60
2022-08-04T09:37:04.290Z,2.57
2022-08-04T09:40:31.529Z,2.03
2022-08-04T09:44:49.829Z,2.03
2022-08-04T09:47:47.596Z,2.60
2022-08-04T09:51:00.704Z,1.70
2022-08-04T09:54:30.308Z,2.80
2022-08-04T09:57:51.482Z,3.37
2022-08-04T10:01:07.524Z,3.67
2022-08-04T10:04:19.731Z,2.33
2022-08-04T10:08:15.815Z,2.27
2022-08-04T10:11:24.919Z,3.23
2022-08-04T10:14:41.435Z,2.13
2022-08-04T10:18:12.690Z,3.83
2022-08-04T10:21:32.662Z,3.07
2022-08-04T10:24:54.455Z,4.07
2022-08-04T10:28:07.464Z,5.03
2022-08-04T10:31:23.768Z,2.87
2022-08-04T10:34:42.319Z,1.47
2022-08-04T10:38:02.969Z,2.80
2022-08-04T10:41:28.392Z,2.07
2022-08-04T10:44:57.442Z,2.07
2022-08-04T10:48:12.943Z,1.93
2022-08-04T10:51:28.972Z,1.60
2022-08-04T10:54:49.618Z,2.97
2022-08-04T10:58:03.119Z,3.33
2022-08-04T11:02:01.362Z,3.60
2022-08-04T11:04:52.261Z,2.13
2022-08-04T11:08:11.452Z,4.33
2022-08-04T11:12:00.364Z,2.30
2022-08-04T11:15:07.562Z,2.43
2022-08-04T11:18:25.427Z,1.60
2022-08-04T11:21:40.084Z,3.23
2022-08-04T11:24:56.707Z,1.50
2022-08-04T11:28:14.632Z,1.70
2022-08-04T11:31:28.745Z,3.30
2022-08-04T11:34:52.911Z,3.43
2022-08-04T11:38:12.290Z,3.10
2022-08-04T11:41:39.883Z,1.75
2022-08-04T11:44:52.138Z,1.75
2022-08-04T11:48:06.631Z,2.13
2022-08-04T11:51:26.454Z,5.60
2022-08-04T11:54:38.297Z,1.98
2022-08-04T11:57:54.026Z,2.03
2022-08-04T12:01:12.985Z,2.17
2022-08-04T12:04:38.858Z,5.30
2022-08-04T12:08:07.564Z,3.47
2022-08-04T12:11:27.005Z,7.57
2022-08-04T12:14:48.010Z,2.50
2022-08-04T12:18:11.715Z,1.40
2022-08-04T12:21:28.905Z,5.33
2022-08-04T12:24:46.860Z,3.63
2022-08-04T12:28:01.488Z,4.70
2022-08-04T12:31:20.237Z,2.37
2022-08-04T12:34:40.116Z,2.07
2022-08-04T12:37:59.216Z,1.00
2022-08-04T12:41:13.019Z,2.65
2022-08-04T12:44:36.420Z,1.20
2022-08-04T12:47:51.701Z,1.38
2022-08-04T12:51:01.588Z,2.10
2022-08-04T12:54:12.394Z,1.45
2022-08-04T12:57:24.171Z,2.05
2022-08-04T13:00:43.748Z,1.52
2022-08-04T13:03:58.505Z,3.13
2022-08-04T13:07:11.712Z,2.45
2022-08-04T13:10:30.362Z,3.70
2022-08-04T13:13:43.723Z,2.65
2022-08-04T13:16:59.147Z,3.33
2022-08-04T13:20:14.117Z,2.33
2022-08-04T13:23:58.418Z,1.60
2022-08-04T13:27:07.243Z,2.55
2022-08-04T13:30:23.034Z,1.50
2022-08-04T13:33:36.992Z,1.48
2022-08-04T13:36:49.828Z,4.15
2022-08-04T13:40:03.949Z,1.60
2022-08-04T13:44:16.018Z,3.03
2022-08-04T13:46:56.940Z,3.13
2022-08-04T13:50:12.636Z,1.57
2022-08-04T13:53:31.231Z,1.97
2022-08-04T13:56:46.981Z,1.93
2022-08-04T14:00:02.396Z,1.40
2022-08-04T14:03:25.985Z,1.60
2022-08-04T14:06:44.841Z,3.67
2022-08-04T14:10:03.878Z,1.63
2022-08-04T14:13:14.087Z,2.40
2022-08-04T14:16:23.702Z,4.23
2022-08-04T14:19:49.714Z,2.33
2022-08-04T14:23:05.316Z,1.87
2022-08-04T14:26:19.037Z,3.83
2022-08-04T14:29:38.425Z,1.43
2022-08-04T14:34:03.092Z,4.30
2022-08-04T14:37:13.955Z,1.90
2022-08-04T14:40:30.895Z,3.75
2022-08-04T14:43:49.711Z,1.75
2022-08-04T14:46:59.524Z,3.63
2022-08-04T14:50:10.717Z,2.85
2022-08-04T14:53:22.081Z,2.10
2022-08-04T14:56:46.844Z,2.22
2022-08-04T15:00:11.188Z,1.40
2022-08-04T15:03:25.430Z,3.03
2022-08-04T15:06:36.594Z,3.45
2022-08-04T15:09:46.185Z,2.33
2022-08-04T15:12:56.452Z,3.50
2022-08-04T15:16:08.648Z,3.30
2022-08-04T15:19:19.508Z,3.77
2022-08-04T15:22:29.233Z,1.43
2022-08-04T15:25:41.981Z,6.40
2022-08-04T15:28:56.821Z,5.47
2022-08-04T15:32:09.562Z,4.07
2022-08-04T15:35:38.682Z,2.50
2022-08-04T15:38:56.269Z,2.13
2022-08-04T15:42:20.853Z,1.90
2022-08-04T15:46:37.224Z,1.90
2022-08-04T15:49:23.859Z,2.17
2022-08-04T15:53:01.409Z,1.87
2022-08-04T15:56:48.303Z,1.87
2022-08-04T16:00:15.091Z,1.70
2022-08-04T16:04:00.302Z,2.40
2022-08-04T16:07:12.206Z,2.90
2022-08-04T16:10:36.867Z,2.80
2022-08-04T16:14:11.297Z,2.10
2022-08-04T16:17:20.989Z,2.13
2022-08-04T16:20:31.289Z,2.90
2022-08-04T16:24:00.623Z,2.80
2022-08-04T16:27:13.688Z,3.03
2022-08-04T16:30:23.736Z,2.97
2022-08-04T16:33:43.787Z,2.63
2022-08-04T16:36:59.344Z,2.23
2022-08-04T16:40:33.737Z,1.40
2022-08-04T16:43:44.695Z,2.27
2022-08-04T16:47:08.482Z,1.67
2022-08-04T16:50:27.479Z,2.53
2022-08-04T16:53:52.004Z,2.07
2022-08-04T16:57:13.554Z,3.93
2022-08-04T17:00:33.252Z,3.40
2022-08-04T17:04:04.383Z,4.57
2022-08-04T17:07:18.392Z,2.77
2022-08-04T17:10:37.421Z,2.33
2022-08-04T17:14:02.847Z,1.50
2022-08-04T17:17:15.420Z,2.57
2022-08-04T17:20:27.448Z,1.40
2022-08-04T17:24:15.893Z,2.07
2022-08-04T17:28:08.888Z,1.70
2022-08-04T17:31:00.606Z,4.00
2022-08-04T17:34:19.248Z,2.17
2022-08-04T17:37:52.122Z,2.40
2022-08-04T17:41:19.561Z,2.77
2022-08-04T17:44:37.911Z,1.47
2022-08-04T17:47:55.480Z,2.80
2022-08-04T17:51:16.694Z,1.47
2022-08-04T17:54:37.089Z,3.43
2022-08-04T17:57:52.102Z,1.87
2022-08-04T18:01:23.828Z,1.47
2022-08-04T18:04:41.022Z,3.80
2022-08-04T18:08:45.630Z,3.10
2022-08-04T18:11:42.170Z,4.27
2022-08-04T18:14:55.145Z,2.97
2022-08-04T18:18:25.243Z,2.60
2022-08-04T18:21:46.640Z,2.67
2022-08-04T18:25:08.525Z,2.27
2022-08-04T18:28:26.897Z,2.20
2022-08-04T18:31:39.375Z,1.67
2022-08-04T18:34:54.849Z,2.07
2022-08-04T18:38:22.738Z,1.70
2022-08-04T18:42:01.052Z,1.77
2022-08-04T18:45:09.691Z,1.63
2022-08-04T18:48:22.605Z,2.83
2022-08-04T18:51:48.812Z,1.53
2022-08-04T18:55:01.924Z,4.20
2022-08-04T18:58:15.783Z,2.60
2022-08-04T19:02:13.728Z,1.93
2022-08-04T19:05:08.673Z,3.43
2022-08-04T19:08:34.916Z,1.63
2022-08-04T19:11:54.688Z,1.60
2022-08-04T19:15:10.316Z,2.10
2022-08-04T19:18:21.095Z,3.70
2022-08-04T19:22:00.074Z,1.83
2022-08-04T19:25:02.543Z,2.60
2022-08-04T19:28:17.547Z,2.93
2022-08-04T19:31:40.084Z,4.97
2022-08-04T19:34:51.974Z,2.43
2022-08-04T19:38:04.165Z,3.33
2022-08-04T19:41:14.962Z,1.60
2022-08-04T19:44:29.939Z,2.37
2022-08-04T19:48:16.235Z,3.30
2022-08-04T19:51:11.770Z,3.33
2022-08-04T19:54:27.542Z,3.53
2022-08-04T19:57:41.474Z,2.30
2022-08-04T20:00:55.564Z,1.83
2022-08-04T20:04:10.185Z,4.33
2022-08-04T20:07:20.559Z,2.53
2022-08-04T20:10:36.422Z,3.67
2022-08-04T20:14:00.858Z,4.67
2022-08-04T20:17:13.133Z,4.40
2022-08-04T20:20:27.487Z,2.23
2022-08-04T20:23:48.805Z,5.00
2022-08-04T20:26:59.755Z,5.33
2022-08-04T20:30:16.273Z,2.30
2022-08-04T20:33:29.912Z,2.63
2022-08-04T20:36:41.142Z,2.77
2022-08-04T20:40:02.087Z,2.73
2022-08-04T20:43:11.829Z,5.83
2022-08-04T20:46:29.947Z,1.93
2022-08-04T20:49:44.552Z,2.67
2022-08-04T20:52:54.075Z,2.73
2022-08-04T20:56:09.510Z,2.30
2022-08-04T20:59:29.189Z,3.13
2022-08-04T21:02:38.922Z,2.20
2022-08-04T21:05:53.244Z,3.30
2022-08-04T21:09:09.593Z,2.70
2022-08-04T21:12:28.613Z,2.97
2022-08-04T21:15:57.846Z,3.00
2022-08-04T21:19:13.109Z,3.23
2022-08-04T21:22:33.079Z,2.93
2022-08-04T21:25:45.081Z,5.33
2022-08-04T21:29:02.665Z,2.03
2022-08-04T21:32:13.610Z,1.83
2022-08-04T21:35:30.830Z,4.13
2022-08-04T21:38:53.961Z,1.80
2022-08-04T21:42:28.072Z,2.53
2022-08-04T21:49:09.290Z,2.87
2022-08-04T21:52:18.929Z,2.07
2022-08-04T21:56:04.992Z,2.07
2022-08-04T21:59:10.576Z,2.10
2022-08-04T22:02:20.988Z,4.33
2022-08-04T22:05:32.657Z,2.07
2022-08-04T22:08:49.155Z,1.80
2022-08-04T22:12:00.202Z,5.07
2022-08-04T22:15:23.299Z,3.87
